createdAt,value
2023-01-17T00:00:28.363Z,53.05
2023-01-17T00:02:58.410Z,53.10
2023-01-17T00:05:55.685Z,53.50
2023-01-17T00:08:38.127Z,53.63
2023-01-17T00:11:11.802Z,53.41
2023-01-17T00:13:41.814Z,53.72
2023-01-17T00:16:17.712Z,54.03
2023-01-17T00:19:07.665Z,54.07
2023-01-17T00:21:50.068Z,53.85
2023-01-17T00:24:32.441Z,53.99
2023-01-17T00:27:14.914Z,54.20
2023-01-17T00:29:42.061Z,54.39
2023-01-17T00:32:11.771Z,54.54
2023-01-17T00:34:39.146Z,54.39
2023-01-17T00:37:06.300Z,54.69
2023-01-17T00:39:33.647Z,54.54
2023-01-17T00:42:04.568Z,54.51
2023-01-17T00:44:47.201Z,54.31
2023-01-17T00:47:32.208Z,54.63
2023-01-17T00:50:17.075Z,54.78
2023-01-17T00:52:59.612Z,54.68
2023-01-17T00:55:42.046Z,54.89
2023-01-17T00:58:25.229Z,55.22
2023-01-17T01:01:07.642Z,55.27
2023-01-17T01:03:52.800Z,55.20
2023-01-17T01:06:35.329Z,54.82
2023-01-17T01:09:17.654Z,54.94
2023-01-17T01:12:00.002Z,55.22
2023-01-17T01:14:42.576Z,55.21
2023-01-17T01:17:25.061Z,55.01
2023-01-17T01:20:10.011Z,55.00
2023-01-17T01:22:52.443Z,55.30
2023-01-17T01:25:34.797Z,55.31
2023-01-17T01:28:21.921Z,55.51
2023-01-17T01:31:04.291Z,55.60
2023-01-17T01:33:31.389Z,55.57
2023-01-17T01:36:03.974Z,55.40
2023-01-17T01:38:35.112Z,55.58
2023-01-17T01:41:05.702Z,55.39
2023-01-17T01:43:48.061Z,55.54
2023-01-17T01:46:22.960Z,55.17
2023-01-17T01:48:57.675Z,55.27
2023-01-17T01:51:34.682Z,55.23
2023-01-17T01:54:10.332Z,55.30
2023-01-17T01:56:42.214Z,55.12
2023-01-17T01:59:18.522Z,54.94
2023-01-17T02:01:49.470Z,55.04
2023-01-17T02:04:20.695Z,55.09
2023-01-17T02:07:00.865Z,55.26
2023-01-17T02:09:31.267Z,55.01
2023-01-17T02:12:01.973Z,54.89
2023-01-17T02:14:31.983Z,55.14
2023-01-17T02:17:15.582Z,54.95
2023-01-17T02:20:24.835Z,55.26
2023-01-17T02:23:37.088Z,55.20
2023-01-17T02:26:38.038Z,54.93
2023-01-17T02:29:40.474Z,54.96
2023-01-17T02:32:17.783Z,55.29
2023-01-17T02:34:52.991Z,54.94
2023-01-17T02:37:28.779Z,55.14
2023-01-17T02:40:06.432Z,54.89
2023-01-17T02:42:41.479Z,54.97
2023-01-17T02:45:17.551Z,54.98
2023-01-17T02:47:50.211Z,54.71
2023-01-17T02:50:23.503Z,54.67
2023-01-17T02:53:12.034Z,55.00
2023-01-17T02:55:56.637Z,54.91
2023-01-17T02:58:48.940Z,54.54
2023-01-17T03:01:30.204Z,54.49
2023-01-17T03:04:07.469Z,54.86
2023-01-17T03:06:43.080Z,54.75
2023-01-17T03:09:13.524Z,54.43
2023-01-17T03:11:43.653Z,54.47
2023-01-17T03:14:13.649Z,54.68
2023-01-17T03:16:44.219Z,54.56
2023-01-17T03:19:16.833Z,54.38
2023-01-17T03:21:46.900Z,54.66
2023-01-17T03:24:16.847Z,54.60
2023-01-17T03:26:48.024Z,54.55
2023-01-17T03:29:18.315Z,54.51
2023-01-17T03:31:48.597Z,54.78
2023-01-17T03:34:21.410Z,54.60
2023-01-17T03:36:51.313Z,54.80
2023-01-17T03:39:21.280Z,55.13
2023-01-17T03:41:51.292Z,54.70
2023-01-17T03:44:21.536Z,54.74
2023-01-17T03:46:51.542Z,54.64
2023-01-17T03:49:24.107Z,54.53
2023-01-17T03:51:54.088Z,54.54
2023-01-17T03:54:24.089Z,54.80
2023-01-17T03:56:54.039Z,54.76
2023-01-17T03:59:24.032Z,54.71
2023-01-17T04:01:53.981Z,54.84
2023-01-17T04:04:26.723Z,55.12
2023-01-17T04:06:56.694Z,54.67
2023-01-17T04:09:26.905Z,54.86
2023-01-17T04:11:57.082Z,55.00
2023-01-17T04:14:27.086Z,54.83
2023-01-17T04:16:57.643Z,54.96
2023-01-17T04:19:30.532Z,54.96
2023-01-17T04:22:02.174Z,55.02
2023-01-17T04:24:32.259Z,55.04
2023-01-17T04:27:02.361Z,55.15
2023-01-17T04:29:32.455Z,55.00
2023-01-17T04:32:02.539Z,55.19
2023-01-17T04:34:35.138Z,55.67
2023-01-17T04:37:05.172Z,55.84
2023-01-17T04:39:35.193Z,55.60
2023-01-17T04:42:05.647Z,55.66
2023-01-17T04:44:37.602Z,55.87
2023-01-17T04:47:07.761Z,56.12
2023-01-17T04:49:40.314Z,56.59
2023-01-17T04:52:15.164Z,56.40
2023-01-17T04:54:45.127Z,56.36
2023-01-17T04:57:15.527Z,56.53
2023-01-17T04:59:45.573Z,56.28
2023-01-17T05:02:16.733Z,56.54
2023-01-17T05:04:49.491Z,56.48
2023-01-17T05:07:22.402Z,57.06
2023-01-17T05:09:52.365Z,57.19
2023-01-17T05:12:22.318Z,57.55
2023-01-17T05:14:52.230Z,57.93
2023-01-17T05:17:22.312Z,58.37
2023-01-17T05:19:54.945Z,58.49
2023-01-17T05:22:24.890Z,58.77
2023-01-17T05:24:54.884Z,59.17
2023-01-17T05:27:24.852Z,59.53
2023-01-17T05:29:55.256Z,59.83
2023-01-17T05:32:25.196Z,60.60
2023-01-17T05:34:57.744Z,61.09
2023-01-17T05:37:27.789Z,61.66
2023-01-17T05:39:57.726Z,61.62
2023-01-17T05:42:28.632Z,61.35
2023-01-17T05:45:02.998Z,61.56
2023-01-17T05:47:33.125Z,62.18
2023-01-17T05:50:05.677Z,62.56
2023-01-17T05:52:35.673Z,62.14
2023-01-17T05:55:07.601Z,62.22
2023-01-17T05:57:37.935Z,62.00
2023-01-17T06:00:09.186Z,62.22
2023-01-17T06:02:39.237Z,61.63
2023-01-17T06:05:15.973Z,61.56
2023-01-17T06:07:48.411Z,61.47
2023-01-17T06:10:20.832Z,60.97
2023-01-17T06:12:51.564Z,60.95
2023-01-17T06:15:21.593Z,60.92
2023-01-17T06:17:51.510Z,60.75
2023-01-17T06:20:24.189Z,60.72
2023-01-17T06:22:55.380Z,60.76
2023-01-17T06:25:25.400Z,60.86
2023-01-17T06:27:55.427Z,60.98
2023-01-17T06:30:25.730Z,61.07
2023-01-17T06:32:56.561Z,61.18
2023-01-17T06:35:29.157Z,61.19
2023-01-17T06:38:00.543Z,61.32
2023-01-17T06:40:31.643Z,60.98
2023-01-17T06:43:03.711Z,60.84
2023-01-17T06:45:35.096Z,61.01
2023-01-17T06:48:05.561Z,60.81
2023-01-17T06:50:38.299Z,61.00
2023-01-17T06:53:09.602Z,60.92
2023-01-17T06:55:41.393Z,61.21
2023-01-17T06:58:12.261Z,60.83
2023-01-17T07:00:45.877Z,60.83
2023-01-17T07:03:22.755Z,60.57
2023-01-17T07:05:55.906Z,60.71
2023-01-17T07:08:25.916Z,60.31
2023-01-17T07:11:01.790Z,60.52
2023-01-17T07:13:34.323Z,59.93
2023-01-17T07:16:06.532Z,60.01
2023-01-17T07:18:37.461Z,60.06
2023-01-17T07:21:15.987Z,60.26
2023-01-17T07:23:45.928Z,60.05
2023-01-17T07:26:17.338Z,59.98
2023-01-17T07:28:47.323Z,60.00
2023-01-17T07:31:17.324Z,60.04
2023-01-17T07:33:47.356Z,60.04
2023-01-17T07:36:19.930Z,60.04
2023-01-17T07:38:54.328Z,59.93
2023-01-17T07:41:24.597Z,60.02
2023-01-17T07:43:56.315Z,59.87
2023-01-17T07:46:28.263Z,59.97
2023-01-17T07:48:58.232Z,59.96
2023-01-17T07:51:31.162Z,60.00
2023-01-17T07:54:01.419Z,60.21
2023-01-17T07:56:31.394Z,60.32
2023-01-17T07:59:01.635Z,60.08
2023-01-17T08:01:31.721Z,60.12
2023-01-17T08:04:02.080Z,60.40
2023-01-17T08:06:35.078Z,60.12
2023-01-17T08:09:05.353Z,60.45
2023-01-17T08:11:35.334Z,60.06
2023-01-17T08:14:06.156Z,59.67
2023-01-17T08:16:37.721Z,59.86
2023-01-17T08:19:07.796Z,58.98
2023-01-17T08:21:40.568Z,58.42
2023-01-17T08:24:15.291Z,57.54
2023-01-17T08:26:45.427Z,56.79
2023-01-17T08:29:15.650Z,57.10
2023-01-17T08:32:00.592Z,57.52
2023-01-17T08:34:30.580Z,57.34
2023-01-17T08:37:03.186Z,56.76
2023-01-17T08:39:33.136Z,55.88
2023-01-17T08:42:03.406Z,56.73
2023-01-17T08:44:33.426Z,56.60
2023-01-17T08:47:04.249Z,56.03
2023-01-17T08:49:34.286Z,56.22
2023-01-17T08:52:09.363Z,56.30
2023-01-17T08:54:39.409Z,56.38
2023-01-17T08:57:10.506Z,56.35
2023-01-17T08:59:40.469Z,56.91
2023-01-17T09:02:16.602Z,56.92
2023-01-17T09:04:48.218Z,56.54
2023-01-17T09:07:24.464Z,56.55
2023-01-17T09:09:54.540Z,56.62
2023-01-17T09:12:24.596Z,56.56
2023-01-17T09:14:54.567Z,56.39
2023-01-17T09:17:24.677Z,56.46
2023-01-17T09:19:54.691Z,56.39
2023-01-17T09:22:27.348Z,55.50
2023-01-17T09:24:57.599Z,55.04
2023-01-17T09:27:27.815Z,55.40
2023-01-17T09:29:57.806Z,55.07
2023-01-17T09:32:27.820Z,54.69
2023-01-17T09:34:57.986Z,54.32
2023-01-17T09:37:30.744Z,54.84
2023-01-17T09:40:00.704Z,54.79
2023-01-17T09:42:36.733Z,54.89
2023-01-17T09:45:07.989Z,54.39
2023-01-17T09:47:41.063Z,53.88
2023-01-17T09:50:29.976Z,54.19
2023-01-17T09:53:05.747Z,54.37
2023-01-17T09:55:40.326Z,53.79
2023-01-17T09:58:14.951Z,53.97
2023-01-17T10:00:54.658Z,54.33
2023-01-17T10:03:33.830Z,54.85
2023-01-17T10:06:18.430Z,55.17
2023-01-17T10:09:08.420Z,54.65
2023-01-17T10:11:48.855Z,54.28
2023-01-17T10:14:36.452Z,54.19
2023-01-17T10:17:16.475Z,54.43
2023-01-17T10:20:07.673Z,54.81
2023-01-17T10:22:57.243Z,54.58
2023-01-17T10:25:43.052Z,54.43
2023-01-17T10:28:19.040Z,53.93
2023-01-17T10:30:52.538Z,54.34
2023-01-17T10:33:24.370Z,54.17
2023-01-17T10:35:59.877Z,54.32
2023-01-17T10:38:35.853Z,54.44
2023-01-17T10:41:16.482Z,54.47
2023-01-17T10:43:55.255Z,54.40
2023-01-17T10:46:30.623Z,54.05
2023-01-17T10:49:01.309Z,54.17
2023-01-17T10:52:01.721Z,54.86
2023-01-17T10:54:47.046Z,55.43
2023-01-17T10:57:23.306Z,55.58
2023-01-17T10:59:56.476Z,55.90
2023-01-17T11:02:29.274Z,56.27
2023-01-17T11:05:05.658Z,55.80
2023-01-17T11:07:35.776Z,55.53
2023-01-17T11:10:05.786Z,55.94
2023-01-17T11:12:43.664Z,56.47
2023-01-17T11:15:35.700Z,56.26
2023-01-17T11:18:08.833Z,55.70
2023-01-17T11:20:43.067Z,56.17
2023-01-17T11:23:22.980Z,56.03
2023-01-17T11:25:55.906Z,55.42
2023-01-17T11:28:31.531Z,55.20
2023-01-17T11:31:04.492Z,55.61
2023-01-17T11:33:45.555Z,55.84
2023-01-17T11:36:23.357Z,56.11
2023-01-17T11:39:14.771Z,56.16
2023-01-17T11:41:45.207Z,56.36
2023-01-17T11:44:28.423Z,56.69
2023-01-17T11:47:21.620Z,57.89
2023-01-17T11:49:52.511Z,58.64
2023-01-17T11:52:29.214Z,59.39
2023-01-17T11:54:59.774Z,59.61
2023-01-17T11:57:33.444Z,60.00
2023-01-17T12:00:22.437Z,59.95
2023-01-17T12:03:14.029Z,60.04
2023-01-17T12:05:57.341Z,60.57
2023-01-17T12:08:37.488Z,60.39
2023-01-17T12:11:16.708Z,60.02
2023-01-17T12:14:02.918Z,59.78
2023-01-17T12:16:56.296Z,59.80
2023-01-17T12:19:38.200Z,57.70
2023-01-17T12:22:23.677Z,54.85
2023-01-17T12:25:21.737Z,54.50
2023-01-17T12:28:01.789Z,53.39
2023-01-17T12:30:47.197Z,52.75
2023-01-17T12:33:30.539Z,51.00
2023-01-17T12:36:04.927Z,52.65
2023-01-17T12:38:38.989Z,52.86
2023-01-17T12:41:13.157Z,53.14
2023-01-17T12:43:47.944Z,54.02
2023-01-17T12:46:24.092Z,55.13
2023-01-17T12:49:01.600Z,55.98
2023-01-17T12:51:35.498Z,56.80
2023-01-17T12:54:13.079Z,57.21
2023-01-17T12:56:48.957Z,57.93
2023-01-17T12:59:28.584Z,58.04
2023-01-17T13:02:00.371Z,57.78
2023-01-17T13:04:57.074Z,58.25
2023-01-17T13:07:36.258Z,57.77
2023-01-17T13:10:22.299Z,57.76
2023-01-17T13:12:53.875Z,57.28
2023-01-17T13:15:30.040Z,57.94
2023-01-17T13:18:09.642Z,57.50
2023-01-17T13:21:07.879Z,57.33
2023-01-17T13:23:59.577Z,56.72
2023-01-17T13:26:40.013Z,56.06
2023-01-17T13:29:23.384Z,55.42
2023-01-17T13:32:03.050Z,54.65
2023-01-17T13:35:11.036Z,54.70
2023-01-17T13:38:02.297Z,52.25
2023-01-17T13:40:38.030Z,51.36
2023-01-17T13:43:14.920Z,51.34
2023-01-17T13:45:55.142Z,51.98
2023-01-17T13:48:34.637Z,51.94
2023-01-17T13:51:05.501Z,51.52
2023-01-17T13:54:05.270Z,50.63
2023-01-17T13:56:38.797Z,50.33
2023-01-17T13:59:30.688Z,50.88
2023-01-17T14:02:00.786Z,51.52
2023-01-17T14:05:00.693Z,52.44
2023-01-17T14:07:31.836Z,52.50
2023-01-17T14:10:04.799Z,53.00
2023-01-17T14:12:35.893Z,52.83
2023-01-17T14:15:23.394Z,52.94
2023-01-17T14:18:00.280Z,53.07
2023-01-17T14:20:54.799Z,53.21
2023-01-17T14:24:04.060Z,53.75
2023-01-17T14:26:58.971Z,53.50
2023-01-17T14:29:47.539Z,53.23
2023-01-17T14:32:20.500Z,53.60
2023-01-17T14:34:53.555Z,53.89
2023-01-17T14:37:31.905Z,53.04
2023-01-17T14:40:03.242Z,53.03
2023-01-17T14:42:36.436Z,53.54
2023-01-17T14:45:09.851Z,53.44
2023-01-17T14:47:42.340Z,53.59
2023-01-17T14:50:15.098Z,53.89
2023-01-17T14:52:45.067Z,53.88
2023-01-17T14:55:19.117Z,54.32
2023-01-17T14:57:59.391Z,54.70
2023-01-17T15:00:30.561Z,54.79
2023-01-17T15:03:02.337Z,54.77
2023-01-17T15:05:33.044Z,54.79
2023-01-17T15:08:04.307Z,55.20
2023-01-17T15:10:35.560Z,55.21
2023-01-17T15:13:13.407Z,55.05
2023-01-17T15:15:46.473Z,55.05
2023-01-17T15:18:31.425Z,55.06
2023-01-17T15:21:05.757Z,55.24
2023-01-17T15:23:39.222Z,55.70
2023-01-17T15:26:13.955Z,55.88
2023-01-17T15:28:48.828Z,56.51
2023-01-17T15:31:23.051Z,57.30
2023-01-17T15:34:02.145Z,57.70
2023-01-17T15:36:34.702Z,57.60
2023-01-17T15:39:21.259Z,57.65
2023-01-17T15:41:54.770Z,57.95
2023-01-17T15:44:50.253Z,58.14
2023-01-17T15:47:32.853Z,58.52
2023-01-17T15:50:04.201Z,58.35
2023-01-17T15:52:34.231Z,58.60
2023-01-17T15:55:15.663Z,58.64
2023-01-17T15:57:49.424Z,58.36
2023-01-17T16:00:36.561Z,58.54
2023-01-17T16:03:24.246Z,58.38
2023-01-17T16:05:57.822Z,58.42
2023-01-17T16:08:30.889Z,58.52
2023-01-17T16:11:06.254Z,58.49
2023-01-17T16:13:40.109Z,58.38
2023-01-17T16:16:22.193Z,58.33
2023-01-17T16:18:58.692Z,58.49
2023-01-17T16:21:31.034Z,58.54
2023-01-17T16:24:02.931Z,58.78
2023-01-17T16:26:32.944Z,58.91
2023-01-17T16:29:02.978Z,59.05
2023-01-17T16:31:36.926Z,59.18
2023-01-17T16:34:14.267Z,59.20
2023-01-17T16:36:44.211Z,59.29
2023-01-17T16:39:17.008Z,59.03
2023-01-17T16:41:46.916Z,58.77
2023-01-17T16:44:16.968Z,58.43
2023-01-17T16:46:49.505Z,58.20
2023-01-17T16:49:19.572Z,57.94
2023-01-17T16:51:50.030Z,57.57
2023-01-17T16:54:19.954Z,57.13
2023-01-17T16:56:49.993Z,56.81
2023-01-17T16:59:20.052Z,56.97
2023-01-17T17:01:53.055Z,56.93
2023-01-17T17:04:23.186Z,56.96
2023-01-17T17:06:53.211Z,56.81
2023-01-17T17:09:23.235Z,57.08
2023-01-17T17:11:53.243Z,56.93
2023-01-17T17:14:23.375Z,57.32
2023-01-17T17:16:56.307Z,57.54
2023-01-17T17:19:28.540Z,57.22
2023-01-17T17:22:01.677Z,57.58
2023-01-17T17:24:31.879Z,57.33
2023-01-17T17:27:01.855Z,57.30
2023-01-17T17:29:31.782Z,57.39
2023-01-17T17:32:04.611Z,57.44
2023-01-17T17:34:36.706Z,57.33
2023-01-17T17:37:06.704Z,57.38
2023-01-17T17:39:36.947Z,57.49
2023-01-17T17:42:10.051Z,57.62
2023-01-17T17:44:40.526Z,57.89
2023-01-17T17:47:13.158Z,57.68
2023-01-17T17:49:43.538Z,57.89
2023-01-17T17:52:14.977Z,58.22
2023-01-17T17:54:45.334Z,58.30
2023-01-17T17:57:18.244Z,58.29
2023-01-17T17:59:48.394Z,58.12
2023-01-17T18:02:23.217Z,57.75
2023-01-17T18:04:53.339Z,57.53
2023-01-17T18:07:23.398Z,57.24
2023-01-17T18:09:54.117Z,57.50
2023-01-17T18:12:29.666Z,57.65
2023-01-17T18:14:59.680Z,58.19
2023-01-17T18:17:32.685Z,58.07
2023-01-17T18:20:02.904Z,57.90
2023-01-17T18:22:35.109Z,57.59
2023-01-17T18:25:08.356Z,57.53
2023-01-17T18:27:41.804Z,57.93
2023-01-17T18:30:18.020Z,58.19
2023-01-17T18:32:51.272Z,58.18
2023-01-17T18:35:21.521Z,58.01
2023-01-17T18:37:52.998Z,58.11
2023-01-17T18:40:23.083Z,58.23
2023-01-17T18:42:53.357Z,57.95
2023-01-17T18:45:26.183Z,58.06
2023-01-17T18:47:59.646Z,58.15
2023-01-17T18:50:29.646Z,57.76
2023-01-17T18:52:59.763Z,57.76
2023-01-17T18:55:30.546Z,57.57
2023-01-17T18:58:01.659Z,57.71
2023-01-17T19:00:31.648Z,57.72
2023-01-17T19:03:06.802Z,58.06
2023-01-17T19:05:38.814Z,58.40
2023-01-17T19:08:09.615Z,59.56
2023-01-17T19:10:41.798Z,59.77
2023-01-17T19:13:12.220Z,59.94
2023-01-17T19:15:42.221Z,60.09
2023-01-17T19:18:15.131Z,59.77
2023-01-17T19:20:47.773Z,59.59
2023-01-17T19:23:17.987Z,59.61
2023-01-17T19:25:47.954Z,59.30
2023-01-17T19:28:17.913Z,59.45
2023-01-17T19:30:48.047Z,59.49
2023-01-17T19:33:20.608Z,59.79
2023-01-17T19:35:54.137Z,59.59
2023-01-17T19:38:24.149Z,59.45
2023-01-17T19:40:54.241Z,60.02
2023-01-17T19:43:24.373Z,60.20
2023-01-17T19:46:01.365Z,60.23
2023-01-17T19:48:34.317Z,60.39
2023-01-17T19:51:09.153Z,60.38
2023-01-17T19:53:40.444Z,60.42
2023-01-17T19:56:12.106Z,60.29
2023-01-17T19:58:42.220Z,59.98
2023-01-17T20:01:14.423Z,60.10
2023-01-17T20:03:51.131Z,60.13
2023-01-17T20:06:23.932Z,60.02
2023-01-17T20:08:54.036Z,59.79
2023-01-17T20:11:26.388Z,59.84
2023-01-17T20:13:58.323Z,59.85
2023-01-17T20:16:30.114Z,59.73
2023-01-17T20:19:03.091Z,60.02
2023-01-17T20:21:34.497Z,60.03
2023-01-17T20:24:06.008Z,59.86
2023-01-17T20:26:37.718Z,59.89
2023-01-17T20:29:10.683Z,60.07
2023-01-17T20:31:42.781Z,60.12
2023-01-17T20:34:19.735Z,60.13
2023-01-17T20:36:50.245Z,59.82
2023-01-17T20:39:20.204Z,59.88
2023-01-17T20:41:51.556Z,59.63
2023-01-17T20:44:24.027Z,59.48
2023-01-17T20:46:54.044Z,59.41
2023-01-17T20:49:26.842Z,59.75
2023-01-17T20:51:57.992Z,59.88
2023-01-17T20:54:27.938Z,59.93
2023-01-17T20:56:59.835Z,60.45
2023-01-17T20:59:29.772Z,60.49
2023-01-17T21:02:00.203Z,60.11
2023-01-17T21:04:33.020Z,59.97
2023-01-17T21:07:03.035Z,59.76
2023-01-17T21:09:32.986Z,59.56
2023-01-17T21:12:03.711Z,59.39
2023-01-17T21:14:33.649Z,59.57
2023-01-17T21:17:03.659Z,59.41
2023-01-17T21:19:36.583Z,60.27
2023-01-17T21:22:06.780Z,61.33
2023-01-17T21:24:36.782Z,61.64
2023-01-17T21:27:06.964Z,61.72
2023-01-17T21:29:36.988Z,61.63
2023-01-17T21:32:22.232Z,61.44
2023-01-17T21:34:57.469Z,61.54
2023-01-17T21:37:27.447Z,61.34
2023-01-17T21:40:00.337Z,61.20
2023-01-17T21:42:31.270Z,61.51
2023-01-17T21:45:01.582Z,61.24
2023-01-17T21:47:32.100Z,61.13
2023-01-17T21:50:04.690Z,61.07
2023-01-17T21:52:34.715Z,60.96
2023-01-17T21:55:17.128Z,60.65
2023-01-17T21:57:59.711Z,60.64
2023-01-17T22:00:30.011Z,60.25
2023-01-17T22:03:00.019Z,60.17
2023-01-17T22:05:32.617Z,60.32
2023-01-17T22:08:15.302Z,60.19
2023-01-17T22:10:48.650Z,60.31
2023-01-17T22:13:20.081Z,60.45
2023-01-17T22:16:01.264Z,60.67
2023-01-17T22:18:31.620Z,60.69
2023-01-17T22:21:21.972Z,60.30
2023-01-17T22:23:57.909Z,60.07
2023-01-17T22:26:30.474Z,59.64
2023-01-17T22:29:04.393Z,59.76
2023-01-17T22:31:34.434Z,60.08
2023-01-17T22:34:07.015Z,60.66
2023-01-17T22:36:39.640Z,60.67
2023-01-17T22:39:09.650Z,60.63
2023-01-17T22:41:41.280Z,60.53
2023-01-17T22:44:11.305Z,60.37
2023-01-17T22:46:42.235Z,60.30
2023-01-17T22:49:16.895Z,60.30
2023-01-17T22:51:50.240Z,60.65
2023-01-17T22:54:20.237Z,61.00
2023-01-17T22:56:50.233Z,61.28
2023-01-17T22:59:20.165Z,61.26
2023-01-17T23:01:50.138Z,61.67
2023-01-17T23:04:20.084Z,61.25
2023-01-17T23:06:53.568Z,61.49
2023-01-17T23:09:23.572Z,61.48
2023-01-17T23:11:55.283Z,61.52
2023-01-17T23:14:27.970Z,61.69
2023-01-17T23:17:26.776Z,61.40
2023-01-17T23:19:57.177Z,60.75
2023-01-17T23:22:31.892Z,60.65
2023-01-17T23:25:04.119Z,60.74
2023-01-17T23:27:48.267Z,60.28
2023-01-17T23:30:20.080Z,60.10
2023-01-17T23:32:51.501Z,60.79
2023-01-17T23:35:23.217Z,60.58
2023-01-17T23:38:08.350Z,60.58
2023-01-17T23:40:40.373Z,60.20
2023-01-17T23:43:24.724Z,60.41
2023-01-17T23:45:55.792Z,60.42
2023-01-17T23:48:26.447Z,60.05
2023-01-17T23:51:01.195Z,60.20
2023-01-17T23:53:33.997Z,60.10
2023-01-17T23:56:08.703Z,60.20
2023-01-17T23:58:38.706Z,60.14
